Time;durP1;ratioP1;P1;durP2;ratioP2;P2;SDS_P1;SDS_P2;PMS_P1;PMS_P2;Temp;Humidity;BMP_temperature;BMP_pressure;BME280_temperature;BME280_humidity;BME280_pressure;Samples;Min_cycle;Max_cycle;Signal;HPM_P1;HPM_P2
2022/06/08 00:00:46;;;;;;;3.78;2.33;;;;;;;;;;4220543;33;20165;-65
2022/06/08 00:03:17;;;;;;;4.15;2.37;;;;;;;;;;4220073;33;20106;-65
2022/06/08 00:34:10;;;;;;;5.25;1.67;;;;;;;;;;4596277;28;20106;-68
2022/06/08 00:36:36;;;;;;;3.35;1.70;;;;;;;;;;4209421;34;20113;-68
2022/06/08 00:39:03;;;;;;;3.40;1.62;;;;;;;;;;4215610;34;20136;-68
2022/06/08 00:41:33;;;;;;;1.75;1.60;;;;;;;;;;4192010;34;20189;-68
2022/06/08 00:44:01;;;;;;;1.50;1.40;;;;;;;;;;4211753;34;20477;-64
2022/06/08 00:46:28;;;;;;;3.15;1.85;;;;;;;;;;4218310;34;20288;-63
2022/06/08 00:48:58;;;;;;;1.40;1.30;;;;;;;;;;4205820;34;20117;-65
2022/06/08 00:51:26;;;;;;;4.90;1.62;;;;;;;;;;4217764;34;20116;-64
2022/06/08 00:53:58;;;;;;;2.15;1.70;;;;;;;;;;4203512;34;20109;-64
2022/06/08 00:56:28;;;;;;;3.55;1.60;;;;;;;;;;4204447;34;20178;-65
2022/06/08 00:58:56;;;;;;;3.30;1.55;;;;;;;;;;4204873;34;20112;-64
2022/06/08 01:01:22;;;;;;;2.97;1.45;;;;;;;;;;4191296;34;20126;-64
2022/06/08 01:03:48;;;;;;;6.82;2.05;;;;;;;;;;4204525;34;20225;-65
2022/06/08 01:06:21;;;;;;;4.22;1.65;;;;;;;;;;4204101;34;20129;-65
2022/06/08 01:08:50;;;;;;;2.75;1.50;;;;;;;;;;4194132;34;20188;-65
2022/06/08 01:11:32;;;;;;;3.53;1.85;;;;;;;;;;4205648;34;20094;-65
2022/06/08 01:14:00;;;;;;;1.55;1.40;;;;;;;;;;4205563;34;20129;-65
2022/06/08 01:16:26;;;;;;;4.15;2.40;;;;;;;;;;4205419;34;20560;-65
2022/06/08 01:18:52;;;;;;;5.47;1.40;;;;;;;;;;4218437;33;20116;-65
2022/06/08 01:21:20;;;;;;;2.15;1.55;;;;;;;;;;4205502;34;20105;-65
2022/06/08 01:23:59;;;;;;;8.15;1.70;;;;;;;;;;4204734;34;20094;-66
2022/06/08 01:26:29;;;;;;;4.00;1.40;;;;;;;;;;4205516;34;20101;-65
2022/06/08 01:29:15;;;;;;;3.30;1.62;;;;;;;;;;4205081;34;20855;-66
2022/06/08 01:31:46;;;;;;;8.43;2.10;;;;;;;;;;4218281;34;20113;-65
2022/06/08 01:34:22;;;;;;;4.55;1.80;;;;;;;;;;4205295;34;20185;-65
2022/06/08 01:36:56;;;;;;;12.82;3.87;;;;;;;;;;4197569;34;20113;-66
2022/06/08 01:39:54;;;;;;;2.10;1.90;;;;;;;;;;4204229;34;20106;-66
2022/06/08 01:42:48;;;;;;;2.80;1.80;;;;;;;;;;4182438;34;20102;-66
2022/06/08 01:45:33;;;;;;;6.35;1.77;;;;;;;;;;4179745;34;20125;-65
2022/06/08 01:47:59;;;;;;;4.00;1.60;;;;;;;;;;4191454;34;20114;-65
2022/06/08 01:50:30;;;;;;;3.12;1.60;;;;;;;;;;4204179;34;20173;-65
2022/06/08 01:53:00;;;;;;;3.78;1.62;;;;;;;;;;4203892;34;20094;-65
2022/06/08 01:55:33;;;;;;;2.42;1.60;;;;;;;;;;4191279;34;20109;-65
2022/06/08 01:58:07;;;;;;;4.45;2.00;;;;;;;;;;4179650;34;20109;-65
2022/06/08 02:00:38;;;;;;;4.12;2.00;;;;;;;;;;4204082;34;20526;-65
2022/06/08 02:03:31;;;;;;;4.70;2.03;;;;;;;;;;4191071;34;20127;-64
2022/06/08 02:06:14;;;;;;;2.50;1.70;;;;;;;;;;4204136;34;20144;-64
2022/06/08 02:09:09;;;;;;;4.78;1.73;;;;;;;;;;4204120;34;20122;-64
2022/06/08 02:11:47;;;;;;;4.97;2.00;;;;;;;;;;4214529;34;20090;-64
2022/06/08 02:14:15;;;;;;;3.35;1.77;;;;;;;;;;4217652;33;20141;-64
2022/06/08 02:16:49;;;;;;;3.65;2.10;;;;;;;;;;4217709;34;20181;-64
2022/06/08 02:19:23;;;;;;;4.10;1.60;;;;;;;;;;4204851;34;20509;-64
2022/06/08 02:21:54;;;;;;;3.80;1.40;;;;;;;;;;4204697;34;20564;-65
2022/06/08 02:24:26;;;;;;;6.07;2.20;;;;;;;;;;4204893;34;20109;-65
2022/06/08 02:27:01;;;;;;;1.65;1.48;;;;;;;;;;4217630;34;20532;-65
2022/06/08 02:29:36;;;;;;;4.05;1.55;;;;;;;;;;4204435;34;20180;-65
2022/06/08 02:34:27;;;;;;;7.45;2.70;;;;;;;;;;4205078;34;20109;-64
2022/06/08 02:34:56;;;;;;;2.78;1.80;;;;;;;;;;4205826;34;20205;-65
2022/06/08 02:37:25;;;;;;;2.92;1.70;;;;;;;;;;4194873;34;20141;-65
2022/06/08 02:39:55;;;;;;;2.45;1.80;;;;;;;;;;4193147;34;20125;-65
2022/06/08 02:42:26;;;;;;;3.08;1.60;;;;;;;;;;4192969;34;20473;-65
2022/06/08 02:44:56;;;;;;;1.73;1.52;;;;;;;;;;4181709;34;20106;-64
2022/06/08 02:47:31;;;;;;;2.37;1.90;;;;;;;;;;4192173;34;20478;-65
2022/06/08 02:50:03;;;;;;;3.40;1.50;;;;;;;;;;4205487;34;20163;-65
2022/06/08 02:52:30;;;;;;;3.90;1.95;;;;;;;;;;4205544;34;20117;-65
2022/06/08 02:54:57;;;;;;;3.90;1.50;;;;;;;;;;4205103;34;20094;-65
2022/06/08 02:57:42;;;;;;;1.65;1.52;;;;;;;;;;4192161;34;20137;-65
2022/06/08 03:00:27;;;;;;;6.10;1.73;;;;;;;;;;4193055;34;20118;-65
2022/06/08 03:03:20;;;;;;;2.25;1.80;;;;;;;;;;4205409;34;20102;-64
2022/06/08 03:05:56;;;;;;;3.20;1.60;;;;;;;;;;4192764;34;20193;-64
2022/06/08 03:08:29;;;;;;;3.35;1.60;;;;;;;;;;4192399;34;20102;-65
2022/06/08 03:10:58;;;;;;;2.00;1.73;;;;;;;;;;4192791;34;20494;-65
2022/06/08 03:13:28;;;;;;;2.53;1.65;;;;;;;;;;4192430;34;20201;-64
2022/06/08 03:16:00;;;;;;;6.30;1.73;;;;;;;;;;4192712;34;20463;-65
2022/06/08 03:18:27;;;;;;;4.12;1.65;;;;;;;;;;4204873;34;20110;-65
2022/06/08 03:20:54;;;;;;;6.07;1.60;;;;;;;;;;4205502;34;20124;-64
2022/06/08 03:23:20;;;;;;;4.15;1.55;;;;;;;;;;4205472;34;20179;-64
2022/06/08 03:25:47;;;;;;;1.52;1.33;;;;;;;;;;4192571;34;20102;-63
2022/06/08 03:28:14;;;;;;;1.65;1.55;;;;;;;;;;4180739;34;20130;-63
2022/06/08 03:30:41;;;;;;;4.28;1.40;;;;;;;;;;4205377;34;20125;-64
2022/06/08 03:33:08;;;;;;;7.07;1.80;;;;;;;;;;4192469;34;20133;-63
2022/06/08 03:35:35;;;;;;;2.37;1.80;;;;;;;;;;4190674;34;20109;-63
2022/06/08 03:38:01;;;;;;;5.15;1.75;;;;;;;;;;4203109;34;20102;-64
2022/06/08 03:40:27;;;;;;;1.60;1.50;;;;;;;;;;4204577;34;20089;-67
2022/06/08 03:42:54;;;;;;;1.75;1.30;;;;;;;;;;4205108;34;20089;-68
2022/06/08 03:45:20;;;;;;;4.75;2.05;;;;;;;;;;4203222;34;20121;-70
2022/06/08 03:47:48;;;;;;;2.30;1.70;;;;;;;;;;4191899;34;20164;-68
2022/06/08 03:50:17;;;;;;;3.05;1.70;;;;;;;;;;4204488;34;20505;-70
2022/06/08 03:52:49;;;;;;;3.12;1.87;;;;;;;;;;4187880;34;20538;-70
2022/06/08 03:55:15;;;;;;;7.12;2.25;;;;;;;;;;4188141;34;20617;-70
2022/06/08 03:57:45;;;;;;;3.47;1.98;;;;;;;;;;4192162;34;20548;-70
2022/06/08 04:00:12;;;;;;;5.62;2.70;;;;;;;;;;4179918;34;20126;-70
2022/06/08 04:02:39;;;;;;;6.32;3.12;;;;;;;;;;4202301;34;20189;-71
2022/06/08 04:05:05;;;;;;;6.93;3.08;;;;;;;;;;4202615;34;20142;-70
2022/06/08 04:07:32;;;;;;;5.78;2.53;;;;;;;;;;4203065;34;20193;-70
2022/06/08 04:10:01;;;;;;;12.20;3.37;;;;;;;;;;4202670;34;20525;-70
2022/06/08 04:12:27;;;;;;;7.37;3.05;;;;;;;;;;4202178;34;20124;-71
2022/06/08 04:14:53;;;;;;;2.60;2.10;;;;;;;;;;4201860;34;20114;-73
2022/06/08 04:17:19;;;;;;;1.65;1.55;;;;;;;;;;4205059;34;20510;-70
2022/06/08 04:19:49;;;;;;;5.35;1.90;;;;;;;;;;4204502;34;20224;-69
2022/06/08 04:22:19;;;;;;;1.42;1.30;;;;;;;;;;4203237;34;20201;-70
2022/06/08 04:24:45;;;;;;;3.92;1.60;;;;;;;;;;4202782;34;20125;-70
2022/06/08 04:27:11;;;;;;;3.65;1.73;;;;;;;;;;4203019;34;20122;-70
2022/06/08 04:29:38;;;;;;;1.85;1.58;;;;;;;;;;4203201;34;20148;-69
2022/06/08 04:32:05;;;;;;;4.03;1.90;;;;;;;;;;4190239;34;20451;-69
2022/06/08 04:34:32;;;;;;;5.03;1.80;;;;;;;;;;4190223;34;20120;-70
2022/06/08 04:36:57;;;;;;;1.75;1.60;;;;;;;;;;4204732;34;20208;-70
2022/06/08 04:39:24;;;;;;;1.95;1.50;;;;;;;;;;4205195;34;20141;-70
2022/06/08 04:41:50;;;;;;;2.15;1.60;;;;;;;;;;4204851;34;20220;-71
2022/06/08 04:44:17;;;;;;;4.62;1.67;;;;;;;;;;4204918;34;20209;-70
2022/06/08 04:46:42;;;;;;;2.28;1.58;;;;;;;;;;4191986;34;20121;-73
2022/06/08 04:49:08;;;;;;;4.43;2.00;;;;;;;;;;4204978;34;20693;-71
2022/06/08 04:51:35;;;;;;;5.70;1.90;;;;;;;;;;4205225;34;20129;-70
2022/06/08 04:54:01;;;;;;;2.53;1.80;;;;;;;;;;4205014;34;20122;-70
2022/06/08 04:56:27;;;;;;;1.87;1.58;;;;;;;;;;4204850;34;20128;-71
2022/06/08 04:58:54;;;;;;;1.60;1.45;;;;;;;;;;4203991;34;20225;-72
2022/06/08 05:01:21;;;;;;;1.58;1.48;;;;;;;;;;4204772;34;20106;-72
2022/06/08 05:03:48;;;;;;;5.90;1.70;;;;;;;;;;4204778;34;20113;-71
2022/06/08 05:06:14;;;;;;;2.95;1.73;;;;;;;;;;4204668;34;20217;-69
2022/06/08 05:08:40;;;;;;;9.63;2.00;;;;;;;;;;4204588;34;20109;-69
2022/06/08 05:11:07;;;;;;;2.55;1.60;;;;;;;;;;4204565;34;20098;-70
2022/06/08 05:13:36;;;;;;;4.87;1.67;;;;;;;;;;4204527;34;20118;-70
2022/06/08 05:16:04;;;;;;;3.95;1.70;;;;;;;;;;4203131;34;20109;-74
2022/06/08 05:18:30;;;;;;;1.67;1.58;;;;;;;;;;4204604;34;20201;-72
2022/06/08 05:20:57;;;;;;;4.55;1.52;;;;;;;;;;4204591;34;20590;-72
2022/06/08 05:23:26;;;;;;;5.18;1.80;;;;;;;;;;4204365;34;20121;-69
2022/06/08 05:25:53;;;;;;;2.40;1.50;;;;;;;;;;4204384;34;20518;-68
2022/06/08 05:28:20;;;;;;;4.25;1.60;;;;;;;;;;4204412;34;20120;-69
2022/06/08 05:30:46;;;;;;;4.72;2.15;;;;;;;;;;4204618;34;20133;-69
2022/06/08 05:33:12;;;;;;;6.37;1.95;;;;;;;;;;4202984;34;20128;-68
2022/06/08 05:35:39;;;;;;;2.62;2.00;;;;;;;;;;4204073;34;20435;-69
2022/06/08 05:38:07;;;;;;;7.65;1.65;;;;;;;;;;4204369;34;20094;-70
2022/06/08 05:40:33;;;;;;;6.12;1.70;;;;;;;;;;4191765;34;20102;-68
2022/06/08 05:43:00;;;;;;;7.15;1.77;;;;;;;;;;4191501;34;20094;-68
2022/06/08 05:45:28;;;;;;;2.15;1.37;;;;;;;;;;4204205;34;20122;-69
2022/06/08 05:47:55;;;;;;;8.02;2.20;;;;;;;;;;4202762;34;20129;-69
2022/06/08 05:50:21;;;;;;;5.62;1.87;;;;;;;;;;4204113;34;20124;-69
2022/06/08 05:52:48;;;;;;;1.85;1.67;;;;;;;;;;4202596;34;20502;-70
2022/06/08 05:55:14;;;;;;;4.10;1.62;;;;;;;;;;4202699;34;20113;-70
2022/06/08 05:57:41;;;;;;;3.75;2.05;;;;;;;;;;4191452;34;20216;-69
2022/06/08 06:00:11;;;;;;;4.72;1.45;;;;;;;;;;4204175;34;20552;-69
2022/06/08 06:02:37;;;;;;;5.68;2.78;;;;;;;;;;4202808;34;20116;-69
2022/06/08 06:05:04;;;;;;;4.45;1.73;;;;;;;;;;4179483;34;20133;-68
2022/06/08 06:07:30;;;;;;;10.27;1.90;;;;;;;;;;4190939;34;20109;-70
2022/06/08 06:10:02;;;;;;;8.98;1.70;;;;;;;;;;4204202;34;20516;-70
2022/06/08 06:12:29;;;;;;;2.17;1.48;;;;;;;;;;4206106;34;20134;-69
2022/06/08 06:14:56;;;;;;;3.97;1.48;;;;;;;;;;4206032;34;20106;-69
2022/06/08 06:17:21;;;;;;;2.53;1.60;;;;;;;;;;4206063;34;20125;-69
2022/06/08 06:19:47;;;;;;;9.60;1.55;;;;;;;;;;4206235;34;20181;-70
2022/06/08 06:22:13;;;;;;;4.00;1.60;;;;;;;;;;4205921;34;20533;-70
2022/06/08 06:24:39;;;;;;;5.10;2.03;;;;;;;;;;4206216;34;20105;-70
2022/06/08 06:27:05;;;;;;;3.58;2.05;;;;;;;;;;4193395;34;20089;-70
2022/06/08 06:29:31;;;;;;;1.60;1.50;;;;;;;;;;4205911;34;20270;-70
2022/06/08 06:32:00;;;;;;;2.58;1.60;;;;;;;;;;4206019;34;20132;-70
2022/06/08 06:34:26;;;;;;;2.28;1.73;;;;;;;;;;4192880;34;20525;-69
2022/06/08 06:36:53;;;;;;;3.37;1.87;;;;;;;;;;4205883;34;20094;-70
2022/06/08 06:39:21;;;;;;;1.77;1.50;;;;;;;;;;4205991;34;20122;-70
2022/06/08 06:41:47;;;;;;;5.25;1.92;;;;;;;;;;4205870;34;20141;-70
2022/06/08 06:44:14;;;;;;;3.45;1.92;;;;;;;;;;4205686;34;20117;-70
2022/06/08 06:46:40;;;;;;;4.40;1.73;;;;;;;;;;4205821;34;20117;-71
2022/06/08 06:49:06;;;;;;;4.90;1.70;;;;;;;;;;4205847;34;20113;-71
2022/06/08 06:51:34;;;;;;;6.68;1.45;;;;;;;;;;4205805;34;20562;-71
2022/06/08 06:54:01;;;;;;;9.63;1.87;;;;;;;;;;4181584;34;20106;-72
2022/06/08 06:56:27;;;;;;;6.15;1.92;;;;;;;;;;4205695;34;20486;-71
2022/06/08 06:58:53;;;;;;;4.20;1.77;;;;;;;;;;4205559;34;20133;-70
2022/06/08 07:01:19;;;;;;;1.73;1.62;;;;;;;;;;4205634;34;20117;-71
2022/06/08 07:03:46;;;;;;;4.03;1.70;;;;;;;;;;4205734;34;20129;-70
2022/06/08 07:06:12;;;;;;;4.35;1.90;;;;;;;;;;4205548;34;20114;-69
2022/06/08 07:08:38;;;;;;;2.50;1.77;;;;;;;;;;4205552;34;20213;-70
2022/06/08 07:13:50;;;;;;;5.78;2.30;;;;;;;;;;4205433;34;20221;-70
2022/06/08 07:16:16;;;;;;;2.60;1.50;;;;;;;;;;4192854;34;20107;-70
2022/06/08 07:18:42;;;;;;;4.00;1.50;;;;;;;;;;4192617;34;20533;-72
2022/06/08 07:21:10;;;;;;;1.87;1.40;;;;;;;;;;4205471;34;20175;-72
2022/06/08 07:23:35;;;;;;;2.15;1.55;;;;;;;;;;4205145;34;20201;-72
2022/06/08 07:26:02;;;;;;;3.70;1.50;;;;;;;;;;4192753;34;20110;-73
2022/06/08 07:28:28;;;;;;;2.35;1.45;;;;;;;;;;4205269;34;20237;-72
2022/06/08 07:30:55;;;;;;;3.50;1.80;;;;;;;;;;4205552;34;20098;-71
2022/06/08 07:33:21;;;;;;;3.67;1.60;;;;;;;;;;4205143;34;20117;-71
2022/06/08 07:35:47;;;;;;;3.87;1.70;;;;;;;;;;4205298;34;20106;-71
2022/06/08 07:38:13;;;;;;;7.65;1.90;;;;;;;;;;4205266;34;20130;-70
2022/06/08 07:40:39;;;;;;;3.85;1.80;;;;;;;;;;4205426;34;20126;-72
2022/06/08 07:43:05;;;;;;;5.03;1.60;;;;;;;;;;4205430;34;20165;-72
2022/06/08 07:45:31;;;;;;;5.15;2.17;;;;;;;;;;4205422;34;20106;-74
2022/06/08 07:50:42;;;;;;;2.80;2.20;;;;;;;;;;4205334;34;20542;-74
2022/06/08 07:53:08;;;;;;;3.90;1.52;;;;;;;;;;4205350;34;20105;-72
2022/06/08 07:55:34;;;;;;;3.05;1.62;;;;;;;;;;4205340;34;20109;-73
2022/06/08 07:58:02;;;;;;;3.83;2.40;;;;;;;;;;4205167;34;20208;-74
2022/06/08 08:00:28;;;;;;;7.32;1.77;;;;;;;;;;4205309;34;20116;-74
2022/06/08 08:02:55;;;;;;;5.65;1.60;;;;;;;;;;4206524;34;20098;-74
2022/06/08 08:05:22;;;;;;;3.15;1.80;;;;;;;;;;4193950;34;20122;-73
2022/06/08 08:07:49;;;;;;;3.83;1.65;;;;;;;;;;4209082;34;20180;-72
2022/06/08 08:10:18;;;;;;;3.08;1.67;;;;;;;;;;4205107;34;20094;-72
2022/06/08 08:12:46;;;;;;;1.95;1.70;;;;;;;;;;4218413;34;20509;-72
2022/06/08 08:15:12;;;;;;;9.43;2.00;;;;;;;;;;4218748;34;20122;-71
2022/06/08 08:17:38;;;;;;;3.15;1.95;;;;;;;;;;4218913;34;20101;-71
2022/06/08 08:20:05;;;;;;;3.30;1.85;;;;;;;;;;4203506;34;20125;-69
2022/06/08 08:22:32;;;;;;;1.83;1.62;;;;;;;;;;4204824;34;20497;-69
2022/06/08 08:24:58;;;;;;;4.40;1.95;;;;;;;;;;4203748;34;20209;-70
2022/06/08 08:27:24;;;;;;;3.08;2.22;;;;;;;;;;4205230;34;20101;-72
2022/06/08 08:29:51;;;;;;;2.83;1.80;;;;;;;;;;4204783;34;20188;-71
2022/06/08 08:32:17;;;;;;;3.62;1.90;;;;;;;;;;4204840;34;20137;-73
2022/06/08 08:34:43;;;;;;;2.28;1.87;;;;;;;;;;4190865;34;20121;-73
2022/06/08 08:37:09;;;;;;;2.15;1.70;;;;;;;;;;4211476;34;20133;-74
2022/06/08 08:39:35;;;;;;;3.78;1.80;;;;;;;;;;4218866;34;20102;-76
2022/06/08 08:42:20;;;;;;;3.92;1.95;;;;;;;;;;4206055;34;20110;-70
2022/06/08 08:44:59;;;;;;;2.72;2.15;;;;;;;;;;4207662;34;20197;-70
2022/06/08 08:47:38;;;;;;;3.80;2.15;;;;;;;;;;4218805;34;20106;-71
2022/06/08 08:50:29;;;;;;;4.35;2.97;;;;;;;;;;4217413;34;20143;-70
2022/06/08 08:53:07;;;;;;;5.32;2.75;;;;;;;;;;4205515;34;20120;-70
2022/06/08 08:55:48;;;;;;;5.37;3.05;;;;;;;;;;4218693;34;20097;-70
2022/06/08 08:58:17;;;;;;;5.57;3.58;;;;;;;;;;4218778;34;20229;-70
2022/06/08 09:00:52;;;;;;;3.35;2.40;;;;;;;;;;4218828;34;20093;-71
2022/06/08 09:03:26;;;;;;;16.05;5.45;;;;;;;;;;4211377;34;20190;-71
2022/06/08 09:05:56;;;;;;;9.50;5.28;;;;;;;;;;4204964;34;20230;-70
2022/06/08 09:08:23;;;;;;;9.40;4.43;;;;;;;;;;4205091;34;20103;-71
2022/06/08 09:10:50;;;;;;;7.53;3.25;;;;;;;;;;4204575;34;20509;-71
2022/06/08 09:13:23;;;;;;;6.80;3.65;;;;;;;;;;4204486;34;20113;-71
2022/06/08 09:15:49;;;;;;;8.43;3.50;;;;;;;;;;4204541;34;20118;-71
2022/06/08 09:18:34;;;;;;;10.57;4.30;;;;;;;;;;4204507;34;20102;-71
2022/06/08 09:21:24;;;;;;;9.20;3.92;;;;;;;;;;4204649;34;20102;-72
2022/06/08 09:23:53;;;;;;;7.43;3.08;;;;;;;;;;4204234;34;20129;-73
2022/06/08 09:26:25;;;;;;;6.03;3.03;;;;;;;;;;4191490;34;20495;-72
2022/06/08 09:29:02;;;;;;;4.85;2.67;;;;;;;;;;4204532;34;20090;-72
2022/06/08 09:31:33;;;;;;;1.98;1.77;;;;;;;;;;4191918;34;20118;-72
2022/06/08 09:34:22;;;;;;;2.20;1.70;;;;;;;;;;4204238;34;20117;-75
2022/06/08 09:37:05;;;;;;;2.10;1.90;;;;;;;;;;4207647;34;20085;-70
2022/06/08 09:39:33;;;;;;;2.40;1.90;;;;;;;;;;4218168;34;20113;-70
2022/06/08 09:42:05;;;;;;;4.82;1.80;;;;;;;;;;4218053;34;20122;-69
2022/06/08 09:44:45;;;;;;;2.33;1.70;;;;;;;;;;4205047;34;20120;-70
2022/06/08 09:53:34;;;;;;;5.40;1.95;;;;;;;;;;4207148;34;20194;-70
2022/06/08 09:56:11;;;;;;;2.87;1.48;;;;;;;;;;4218270;34;20085;-70
2022/06/08 09:58:56;;;;;;;3.10;2.17;;;;;;;;;;4217987;34;20192;-70
2022/06/08 10:01:35;;;;;;;2.85;2.10;;;;;;;;;;4205067;34;20544;-69
2022/06/08 10:04:28;;;;;;;5.80;2.10;;;;;;;;;;4210321;34;20133;-71
2022/06/08 10:07:13;;;;;;;7.32;2.10;;;;;;;;;;4196870;34;20208;-71
2022/06/08 10:09:55;;;;;;;3.78;1.67;;;;;;;;;;4191247;34;20112;-69
2022/06/08 10:12:30;;;;;;;2.42;2.22;;;;;;;;;;4203903;34;20225;-69
2022/06/08 10:15:03;;;;;;;1.87;1.70;;;;;;;;;;4204046;34;20137;-71
2022/06/08 10:17:32;;;;;;;6.18;2.10;;;;;;;;;;4203924;34;20141;-71
2022/06/08 10:20:25;;;;;;;1.70;1.60;;;;;;;;;;4191190;34;20106;-69
2022/06/08 10:22:55;;;;;;;2.35;1.70;;;;;;;;;;4198027;34;20109;-70
2022/06/08 10:25:27;;;;;;;4.68;2.17;;;;;;;;;;4200695;34;20096;-69
2022/06/08 10:28:06;;;;;;;3.42;2.15;;;;;;;;;;4203136;34;20082;-69
2022/06/08 10:31:04;;;;;;;1.77;1.60;;;;;;;;;;4194043;34;20617;-70
2022/06/08 10:33:37;;;;;;;4.97;2.05;;;;;;;;;;4196131;34;20126;-69
2022/06/08 10:36:03;;;;;;;2.65;1.98;;;;;;;;;;4192512;34;20486;-69
2022/06/08 10:38:35;;;;;;;8.90;2.20;;;;;;;;;;4190062;34;20122;-69
2022/06/08 10:43:55;;;;;;;2.40;2.00;;;;;;;;;;4215639;34;20124;-71
2022/06/08 10:46:46;;;;;;;4.28;2.00;;;;;;;;;;4203131;34;20518;-69
2022/06/08 10:49:19;;;;;;;3.78;2.10;;;;;;;;;;4205224;34;20217;-69
2022/06/08 10:52:20;;;;;;;4.30;2.25;;;;;;;;;;4213766;34;20596;-67
2022/06/08 10:54:54;;;;;;;2.97;2.00;;;;;;;;;;4195543;34;20141;-68
2022/06/08 10:57:35;;;;;;;3.35;2.08;;;;;;;;;;4209871;34;20205;-68
2022/06/08 11:00:19;;;;;;;4.50;2.00;;;;;;;;;;4214618;33;20493;-69
2022/06/08 11:02:58;;;;;;;3.12;2.10;;;;;;;;;;4191286;34;20098;-69
2022/06/08 11:05:31;;;;;;;2.72;1.90;;;;;;;;;;4205334;34;20092;-69
2022/06/08 11:08:10;;;;;;;4.03;1.70;;;;;;;;;;4205191;34;20105;-69
2022/06/08 11:10:42;;;;;;;2.00;1.77;;;;;;;;;;4205549;34;20098;-69
2022/06/08 11:13:26;;;;;;;2.35;1.87;;;;;;;;;;4204808;34;20525;-69
2022/06/08 11:16:06;;;;;;;4.72;1.80;;;;;;;;;;4204978;34;20129;-69
2022/06/08 11:18:50;;;;;;;2.25;1.75;;;;;;;;;;4192511;34;20152;-68
2022/06/08 11:21:54;;;;;;;1.50;1.40;;;;;;;;;;4205155;34;20474;-69
2022/06/08 11:24:27;;;;;;;2.85;1.70;;;;;;;;;;4176393;34;20122;-69
2022/06/08 11:27:29;;;;;;;2.28;1.67;;;;;;;;;;4203015;34;20117;-69
2022/06/08 11:29:59;;;;;;;2.45;1.87;;;;;;;;;;4190615;34;20117;-68
2022/06/08 11:32:34;;;;;;;3.58;1.92;;;;;;;;;;4205229;34;20101;-69
2022/06/08 11:35:33;;;;;;;6.60;2.30;;;;;;;;;;4204891;34;20113;-69
2022/06/08 11:38:05;;;;;;;5.47;1.98;;;;;;;;;;4192125;34;20193;-69
2022/06/08 11:40:33;;;;;;;2.92;2.15;;;;;;;;;;4192311;34;20106;-69
2022/06/08 11:43:15;;;;;;;4.07;2.00;;;;;;;;;;4205011;34;20106;-69
2022/06/08 11:45:42;;;;;;;4.00;2.37;;;;;;;;;;4204853;34;20125;-69
2022/06/08 11:48:14;;;;;;;3.22;2.12;;;;;;;;;;4204806;34;20133;-69
2022/06/08 11:50:47;;;;;;;4.47;2.20;;;;;;;;;;4204609;34;20116;-68
2022/06/08 11:53:40;;;;;;;3.15;1.90;;;;;;;;;;4203823;34;20602;-69
2022/06/08 11:56:25;;;;;;;4.57;2.17;;;;;;;;;;4203390;34;20098;-69
2022/06/08 11:58:59;;;;;;;4.47;1.90;;;;;;;;;;4204885;34;20124;-70
2022/06/08 12:01:30;;;;;;;4.72;2.42;;;;;;;;;;4204563;34;20620;-70
2022/06/08 12:04:01;;;;;;;5.05;2.25;;;;;;;;;;4191746;34;20106;-70
2022/06/08 12:06:38;;;;;;;2.15;1.95;;;;;;;;;;4180535;34;20213;-69
2022/06/08 12:09:20;;;;;;;2.78;2.20;;;;;;;;;;4204715;34;20129;-67
2022/06/08 12:11:49;;;;;;;3.78;2.45;;;;;;;;;;4204524;34;20125;-70
2022/06/08 12:14:21;;;;;;;2.62;2.10;;;;;;;;;;4191610;34;20121;-69
2022/06/08 12:17:00;;;;;;;3.50;1.95;;;;;;;;;;4205090;34;20102;-69
2022/06/08 12:19:47;;;;;;;3.47;2.42;;;;;;;;;;4204679;34;20129;-69
2022/06/08 12:22:29;;;;;;;6.68;2.37;;;;;;;;;;4191863;34;20443;-70
2022/06/08 12:25:14;;;;;;;2.60;1.80;;;;;;;;;;4192522;34;20216;-72
2022/06/08 12:27:44;;;;;;;4.60;2.10;;;;;;;;;;4204658;34;20128;-71
2022/06/08 12:30:21;;;;;;;4.57;1.80;;;;;;;;;;4191631;34;20120;-69
2022/06/08 12:32:52;;;;;;;3.58;1.60;;;;;;;;;;4204672;34;20106;-71
2022/06/08 12:35:31;;;;;;;2.47;1.85;;;;;;;;;;4191474;34;21042;-70
2022/06/08 12:38:28;;;;;;;3.25;2.08;;;;;;;;;;4204261;34;20110;-71
2022/06/08 12:41:03;;;;;;;4.35;2.03;;;;;;;;;;4180431;34;20113;-72
2022/06/08 12:43:40;;;;;;;3.50;2.20;;;;;;;;;;4204583;34;20141;-71
2022/06/08 12:46:13;;;;;;;3.90;2.33;;;;;;;;;;4204524;34;20118;-70
2022/06/08 12:48:42;;;;;;;2.30;2.10;;;;;;;;;;4204661;34;20110;-71
2022/06/08 12:51:29;;;;;;;3.30;2.30;;;;;;;;;;4204153;34;20159;-70
2022/06/08 12:53:56;;;;;;;3.58;2.00;;;;;;;;;;4203799;34;20117;-70
2022/06/08 12:56:22;;;;;;;5.72;2.40;;;;;;;;;;4204633;34;20128;-70
2022/06/08 12:58:50;;;;;;;2.62;2.00;;;;;;;;;;4204416;34;20505;-69
2022/06/08 13:01:16;;;;;;;2.30;2.10;;;;;;;;;;4204020;34;20090;-69
2022/06/08 13:03:43;;;;;;;3.40;2.08;;;;;;;;;;4204034;34;20207;-70
2022/06/08 13:06:10;;;;;;;2.62;2.20;;;;;;;;;;4179892;34;20133;-69
2022/06/08 13:08:36;;;;;;;2.97;2.25;;;;;;;;;;4191841;34;20133;-69
2022/06/08 13:11:05;;;;;;;2.25;2.05;;;;;;;;;;4204457;34;20128;-69
2022/06/08 13:13:36;;;;;;;3.17;1.92;;;;;;;;;;4204138;34;20246;-69
2022/06/08 13:16:06;;;;;;;2.17;1.98;;;;;;;;;;4203824;34;20111;-69
2022/06/08 13:18:33;;;;;;;2.75;2.20;;;;;;;;;;4191884;34;20117;-69
2022/06/08 13:20:59;;;;;;;3.97;2.00;;;;;;;;;;4203522;34;20097;-69
2022/06/08 13:23:25;;;;;;;2.10;1.90;;;;;;;;;;4203878;34;20117;-70
2022/06/08 13:25:53;;;;;;;2.87;2.08;;;;;;;;;;4191271;34;20092;-69
2022/06/08 13:28:24;;;;;;;2.58;2.00;;;;;;;;;;4203948;34;20144;-69
2022/06/08 13:30:52;;;;;;;3.45;2.10;;;;;;;;;;4204194;34;20114;-69
2022/06/08 13:36:41;;;;;;;4.93;2.10;;;;;;;;;;4204106;34;20109;-71
2022/06/08 13:39:29;;;;;;;4.60;2.10;;;;;;;;;;4183177;34;20556;-70
2022/06/08 13:42:13;;;;;;;3.10;2.20;;;;;;;;;;4203870;34;20110;-70
2022/06/08 13:44:42;;;;;;;6.25;2.22;;;;;;;;;;4203730;34;20640;-69
2022/06/08 13:47:12;;;;;;;4.35;2.60;;;;;;;;;;4204045;34;20114;-70
2022/06/08 13:49:44;;;;;;;4.68;2.40;;;;;;;;;;4203907;34;20094;-70
2022/06/08 13:52:19;;;;;;;4.95;3.15;;;;;;;;;;4203748;34;20106;-69
2022/06/08 13:54:48;;;;;;;5.32;2.20;;;;;;;;;;4191254;34;20113;-69
2022/06/08 13:57:15;;;;;;;2.90;2.25;;;;;;;;;;4204864;34;20129;-69
2022/06/08 13:59:43;;;;;;;5.05;2.58;;;;;;;;;;4202843;34;20205;-70
2022/06/08 14:02:15;;;;;;;4.18;2.17;;;;;;;;;;4202578;34;20251;-69
2022/06/08 14:04:42;;;;;;;3.65;2.62;;;;;;;;;;4203855;34;20601;-69
2022/06/08 14:13:02;;;;;;;3.33;2.12;;;;;;;;;;4204388;34;20128;-69
2022/06/08 14:15:28;;;;;;;2.20;2.00;;;;;;;;;;4203843;34;20110;-70
2022/06/08 14:17:55;;;;;;;3.58;2.10;;;;;;;;;;4202643;34;20510;-69
2022/06/08 14:20:23;;;;;;;3.97;2.45;;;;;;;;;;4203773;34;20100;-68
2022/06/08 14:22:50;;;;;;;5.68;2.80;;;;;;;;;;4203631;34;20189;-69
2022/06/08 14:25:16;;;;;;;9.30;6.20;;;;;;;;;;4203943;34;20529;-68
2022/06/08 14:27:42;;;;;;;6.22;4.60;;;;;;;;;;4204102;34;20110;-68
2022/06/08 14:30:12;;;;;;;5.12;2.70;;;;;;;;;;4203754;34;20205;-68
2022/06/08 14:32:52;;;;;;;3.55;2.65;;;;;;;;;;4205486;34;20499;-68
2022/06/08 14:35:26;;;;;;;12.57;7.93;;;;;;;;;;4181410;34;20145;-69
2022/06/08 14:37:53;;;;;;;7.68;2.22;;;;;;;;;;4205608;34;20117;-69
2022/06/08 14:40:34;;;;;;;2.40;2.20;;;;;;;;;;4205508;34;20137;-70
2022/06/08 14:43:02;;;;;;;2.62;2.40;;;;;;;;;;4205717;34;20117;-70
2022/06/08 14:45:28;;;;;;;3.25;2.53;;;;;;;;;;4205861;34;20209;-71
2022/06/08 14:47:54;;;;;;;3.83;2.25;;;;;;;;;;4205809;34;20128;-72
2022/06/08 14:50:24;;;;;;;2.47;2.28;;;;;;;;;;4205888;34;20142;-70
2022/06/08 14:52:50;;;;;;;3.47;2.53;;;;;;;;;;4205828;34;20546;-69
2022/06/08 14:58:03;;;;;;;2.92;2.58;;;;;;;;;;4205581;34;20117;-70
2022/06/08 15:00:30;;;;;;;4.32;2.85;;;;;;;;;;4205665;34;20109;-70
2022/06/08 15:02:57;;;;;;;3.42;2.80;;;;;;;;;;4205508;34;20106;-67
2022/06/08 15:05:25;;;;;;;5.12;2.58;;;;;;;;;;4205490;34;20096;-71
2022/06/08 15:07:50;;;;;;;3.92;2.60;;;;;;;;;;4205749;34;20209;-70
2022/06/08 15:10:18;;;;;;;11.90;5.80;;;;;;;;;;4204150;34;20489;-73
2022/06/08 15:12:45;;;;;;;7.35;2.92;;;;;;;;;;4205820;34;20121;-67
2022/06/08 15:15:17;;;;;;;9.35;3.15;;;;;;;;;;4192871;34;20217;-68
2022/06/08 15:17:45;;;;;;;5.37;3.35;;;;;;;;;;4192694;34;20114;-66
2022/06/08 15:20:27;;;;;;;4.97;3.10;;;;;;;;;;4205768;34;20118;-66
2022/06/08 15:22:56;;;;;;;6.05;2.90;;;;;;;;;;4192676;34;20629;-66
2022/06/08 15:25:28;;;;;;;3.37;2.67;;;;;;;;;;4192428;34;20113;-64
2022/06/08 15:27:57;;;;;;;6.30;3.67;;;;;;;;;;4192709;34;20189;-65
2022/06/08 15:30:32;;;;;;;4.25;2.80;;;;;;;;;;4205408;34;20110;-67
2022/06/08 15:32:59;;;;;;;4.70;2.43;;;;;;;;;;4205195;34;20102;-67
2022/06/08 15:35:25;;;;;;;3.25;2.95;;;;;;;;;;4205324;34;20113;-68
2022/06/08 15:37:53;;;;;;;5.93;2.50;;;;;;;;;;4205258;34;20114;-70
2022/06/08 15:40:25;;;;;;;3.85;2.42;;;;;;;;;;4192612;34;20136;-67
2022/06/08 15:42:51;;;;;;;3.90;2.87;;;;;;;;;;4203749;34;20126;-67
2022/06/08 15:45:18;;;;;;;3.12;2.65;;;;;;;;;;4192434;34;20112;-68
2022/06/08 15:47:48;;;;;;;4.55;3.50;;;;;;;;;;4205408;34;20130;-68
2022/06/08 15:50:22;;;;;;;3.50;2.90;;;;;;;;;;4205232;34;20113;-68
2022/06/08 15:52:49;;;;;;;3.70;2.75;;;;;;;;;;4192442;34;20136;-68
2022/06/08 15:55:24;;;;;;;2.58;2.37;;;;;;;;;;4192442;34;20545;-68
2022/06/08 15:57:52;;;;;;;4.03;3.00;;;;;;;;;;4203569;34;20178;-66
2022/06/08 16:00:23;;;;;;;7.90;3.75;;;;;;;;;;4204060;34;20132;-69
2022/06/08 16:02:50;;;;;;;7.25;2.97;;;;;;;;;;4192411;34;20613;-70